createdAt,value
2023-10-09T00:03:24.288Z,37.74
2023-10-09T00:08:31.955Z,37.27
2023-10-09T00:13:33.904Z,37.14
2023-10-09T00:18:36.099Z,37.49
2023-10-09T00:23:38.490Z,36.99
2023-10-09T00:28:48.496Z,36.63
2023-10-09T00:34:09.192Z,36.16
2023-10-09T00:39:19.393Z,35.99
2023-10-09T00:44:21.279Z,36.01
2023-10-09T00:49:23.588Z,36.27
2023-10-09T00:54:42.493Z,37.33
2023-10-09T00:59:45.575Z,37.83
2023-10-09T01:05:19.850Z,38.07
2023-10-09T01:10:23.192Z,37.13
2023-10-09T01:15:37.812Z,36.27
2023-10-09T01:20:46.609Z,36.67
2023-10-09T01:25:50.751Z,36.36
2023-10-09T01:30:52.910Z,35.79
2023-10-09T01:36:00.473Z,35.81
2023-10-09T01:41:08.840Z,35.95
2023-10-09T01:46:11.970Z,35.48
2023-10-09T01:51:21.344Z,35.76
2023-10-09T01:56:23.363Z,36.37
2023-10-09T02:01:25.259Z,35.89
2023-10-09T02:06:28.407Z,35.98
2023-10-09T02:11:44.588Z,35.52
2023-10-09T02:17:18.814Z,35.98
2023-10-09T02:22:38.964Z,36.26
2023-10-09T02:28:00.532Z,36.09
2023-10-09T02:33:28.978Z,35.85
2023-10-09T02:38:34.712Z,35.88
2023-10-09T02:43:48.992Z,36.46
2023-10-09T02:49:11.018Z,36.23
2023-10-09T02:54:22.247Z,36.70
2023-10-09T02:59:24.928Z,36.39
2023-10-09T03:04:45.653Z,36.21
2023-10-09T03:09:47.947Z,36.26
2023-10-09T03:14:49.740Z,35.85
2023-10-09T03:19:51.611Z,35.98
2023-10-09T03:24:54.117Z,35.60
2023-10-09T03:29:56.281Z,35.25
2023-10-09T03:35:00.530Z,35.33
2023-10-09T03:40:21.130Z,35.48
2023-10-09T03:45:26.419Z,36.28
2023-10-09T03:50:36.563Z,35.80
2023-10-09T03:55:41.841Z,35.84
2023-10-09T04:01:08.806Z,36.60
2023-10-09T04:06:12.327Z,36.11
2023-10-09T04:11:17.761Z,35.96
2023-10-09T04:16:29.638Z,36.56
2023-10-09T04:21:31.506Z,35.89
2023-10-09T04:26:36.105Z,36.03
2023-10-09T04:31:41.066Z,36.17
2023-10-09T04:36:50.452Z,35.96
2023-10-09T04:41:53.352Z,35.66
2023-10-09T04:47:12.088Z,35.67
2023-10-09T04:52:26.698Z,35.69
2023-10-09T04:57:28.670Z,35.41
2023-10-09T05:02:37.767Z,35.98
2023-10-09T05:08:18.700Z,35.89
2023-10-09T05:13:41.735Z,35.66
2023-10-09T05:19:29.338Z,34.89
2023-10-09T05:24:43.619Z,35.00
2023-10-09T05:30:00.983Z,35.09
2023-10-09T05:35:31.084Z,35.25
2023-10-09T05:40:32.901Z,34.81
2023-10-09T05:45:53.317Z,35.46
2023-10-09T05:51:10.074Z,36.16
2023-10-09T05:56:31.327Z,36.33
2023-10-09T06:01:51.898Z,36.64
2023-10-09T06:07:14.383Z,36.64
2023-10-09T06:12:34.638Z,36.28
2023-10-09T06:17:44.867Z,36.40
2023-10-09T06:22:59.405Z,36.09
2023-10-09T06:28:02.276Z,35.86
2023-10-09T06:33:04.462Z,36.67
2023-10-09T06:38:34.810Z,36.52
2023-10-09T06:43:44.349Z,36.42
2023-10-09T06:48:47.265Z,36.63
2023-10-09T06:53:54.777Z,37.34
2023-10-09T06:59:21.331Z,36.89
2023-10-09T07:04:32.136Z,36.62
2023-10-09T07:09:43.851Z,36.71
2023-10-09T07:15:24.841Z,36.74
2023-10-09T07:20:38.551Z,36.01
2023-10-09T07:25:42.225Z,35.30
2023-10-09T07:30:44.099Z,35.08
2023-10-09T07:35:58.374Z,34.94
2023-10-09T07:41:03.150Z,33.84
2023-10-09T07:46:05.100Z,33.75
2023-10-09T07:51:13.838Z,33.81
2023-10-09T07:56:21.929Z,34.62
2023-10-09T08:01:24.133Z,34.87
2023-10-09T08:06:43.213Z,35.69
2023-10-09T08:12:25.484Z,35.22
2023-10-09T08:17:30.153Z,34.70
2023-10-09T08:22:43.942Z,34.54
2023-10-09T08:27:57.367Z,31.95
2023-10-09T08:38:09.807Z,29.10
2023-10-09T08:43:21.809Z,28.18
2023-10-09T08:48:23.595Z,26.88
2023-10-09T08:53:46.819Z,26.20
2023-10-09T08:59:06.225Z,25.81
2023-10-09T09:04:09.330Z,26.08
2023-10-09T09:09:16.584Z,25.40
2023-10-09T09:14:23.238Z,24.60
2023-10-09T09:19:33.508Z,23.69
2023-10-09T09:24:35.406Z,23.06
2023-10-09T09:29:41.048Z,23.00
2023-10-09T09:34:49.109Z,22.68
2023-10-09T09:39:55.989Z,23.16
2023-10-09T09:45:01.552Z,29.00
2023-10-09T09:50:12.704Z,28.94
2023-10-09T09:55:23.376Z,26.70
2023-10-09T10:00:44.311Z,27.07
2023-10-09T10:05:49.791Z,27.95
2023-10-09T10:10:58.725Z,28.73
2023-10-09T10:16:10.127Z,29.34
2023-10-09T10:21:27.500Z,30.34
2023-10-09T10:26:31.447Z,31.47
2023-10-09T10:32:01.718Z,33.50
2023-10-09T10:37:09.157Z,32.73
2023-10-09T10:42:31.093Z,26.53
2023-10-09T10:47:36.292Z,32.06
2023-10-09T10:52:46.199Z,34.43
2023-10-09T10:58:01.642Z,35.56
2023-10-09T11:03:14.958Z,35.62
2023-10-09T11:08:23.205Z,33.73
2023-10-09T11:13:34.570Z,34.25
2023-10-09T11:18:58.157Z,33.37
2023-10-09T11:24:20.251Z,33.67
2023-10-09T11:29:26.007Z,33.17
2023-10-09T11:34:39.024Z,33.16
2023-10-09T11:39:56.992Z,30.53
2023-10-09T11:45:05.511Z,31.70
2023-10-09T11:50:13.975Z,32.08
2023-10-09T11:55:17.568Z,31.77
2023-10-09T12:00:31.294Z,30.60
2023-10-09T12:05:34.847Z,28.99
2023-10-09T12:10:39.529Z,29.01
2023-10-09T12:15:41.540Z,27.75
2023-10-09T12:21:05.636Z,29.33
2023-10-09T12:26:15.482Z,29.76
2023-10-09T12:31:21.345Z,28.61
2023-10-09T12:36:23.462Z,28.11
2023-10-09T12:41:29.775Z,27.87
2023-10-09T12:46:38.909Z,25.65
2023-10-09T12:51:41.536Z,24.21
2023-10-09T12:56:44.073Z,24.03
2023-10-09T13:01:46.072Z,25.35
2023-10-09T13:06:48.081Z,26.87
2023-10-09T13:11:51.299Z,24.60
2023-10-09T13:17:12.280Z,22.79
2023-10-09T13:22:14.760Z,19.39
2023-10-09T13:27:22.604Z,21.71
2023-10-09T13:32:24.617Z,22.37
2023-10-09T13:37:45.442Z,18.15
2023-10-09T13:42:48.521Z,20.05
2023-10-09T13:47:50.459Z,18.83
2023-10-09T13:52:55.173Z,21.12
2023-10-09T13:57:58.693Z,24.53
2023-10-09T14:03:12.610Z,25.29
2023-10-09T14:08:33.047Z,21.98
2023-10-09T14:13:34.879Z,26.12
2023-10-09T14:18:58.016Z,25.37
2023-10-09T14:24:00.207Z,24.31
2023-10-09T14:29:02.056Z,23.17
2023-10-09T14:34:03.962Z,24.38
2023-10-09T14:39:06.029Z,27.10
2023-10-09T14:44:07.883Z,23.23
2023-10-09T14:49:15.013Z,24.66
2023-10-09T14:54:19.219Z,25.23
2023-10-09T14:59:23.338Z,22.88
2023-10-09T15:04:26.729Z,22.02
2023-10-09T15:09:32.616Z,23.31
2023-10-09T15:14:35.132Z,22.86
2023-10-09T15:19:38.064Z,22.31
2023-10-09T15:24:41.857Z,21.98
2023-10-09T15:29:46.175Z,22.64
2023-10-09T15:34:48.545Z,21.90
2023-10-09T15:39:50.996Z,23.01
2023-10-09T15:45:13.387Z,24.79
2023-10-09T15:50:16.037Z,22.47
2023-10-09T15:55:21.989Z,21.97
2023-10-09T16:00:29.898Z,21.24
2023-10-09T16:05:36.803Z,22.03
2023-10-09T16:10:38.922Z,22.54
2023-10-09T16:15:46.667Z,23.07
2023-10-09T16:20:48.641Z,23.00
2023-10-09T16:25:51.100Z,23.71
2023-10-09T16:30:53.063Z,24.05
2023-10-09T16:35:55.785Z,25.19
